sensor_id;sensor_type;location;lat;lon;timestamp;pressure;altitude;pressure_sealevel;temperature;humidity
33161;BME280;19522;45.656;11.302;2023-11-21T00:00:13;97791.03;;;6.96;100.00
33161;BME280;19522;45.656;11.302;2023-11-21T00:02:39;97784.09;;;7.01;100.00
33161;BME280;19522;45.656;11.302;2023-11-21T00:05:08;97744.50;;;6.94;100.00
33161;BME280;19522;45.656;11.302;2023-11-21T00:07:35;97773.38;;;7.08;100.00
33161;BME280;19522;45.656;11.302;2023-11-21T00:10:00;97760.69;;;6.94;100.00
33161;BME280;19522;45.656;11.302;2023-11-21T00:12:26;97747.84;;;6.96;100.00
33161;BME280;19522;45.656;11.302;2023-11-21T00:14:51;97749.06;;;7.08;100.00
33161;BME280;19522;45.656;11.302;2023-11-21T00:17:17;97743.16;;;6.90;100.00
33161;BME280;19522;45.656;11.302;2023-11-21T00:19:42;97744.13;;;6.97;100.00
33161;BME280;19522;45.656;11.302;2023-11-21T00:22:08;97754.41;;;7.16;100.00
33161;BME280;19522;45.656;11.302;2023-11-21T00:24:34;97732.44;;;6.81;100.00
33161;BME280;19522;45.656;11.302;2023-11-21T00:27:00;97748.09;;;6.86;100.00
33161;BME280;19522;45.656;11.302;2023-11-21T00:29:25;97758.66;;;6.96;100.00
33161;BME280;19522;45.656;11.302;2023-11-21T00:31:51;97714.16;;;6.68;100.00
33161;BME280;19522;45.656;11.302;2023-11-21T00:34:17;97737.75;;;6.90;100.00
33161;BME280;19522;45.656;11.302;2023-11-21T00:36:42;97748.63;;;7.20;100.00
33161;BME280;19522;45.656;11.302;2023-11-21T00:39:08;97739.28;;;7.07;100.00
33161;BME280;19522;45.656;11.302;2023-11-21T00:41:33;97704.09;;;7.00;100.00
33161;BME280;19522;45.656;11.302;2023-11-21T00:44:02;97734.00;;;7.14;100.00
33161;BME280;19522;45.656;11.302;2023-11-21T00:46:28;97713.06;;;7.16;100.00
33161;BME280;19522;45.656;11.302;2023-11-21T00:48:54;97695.81;;;7.02;100.00
33161;BME280;19522;45.656;11.302;2023-11-21T00:51:20;97703.94;;;7.17;100.00
33161;BME280;19522;45.656;11.302;2023-11-21T00:53:47;97704.94;;;7.16;100.00
33161;BME280;19522;45.656;11.302;2023-11-21T00:56:13;97730.75;;;7.33;100.00
33161;BME280;19522;45.656;11.302;2023-11-21T00:58:39;97732.44;;;7.35;99.92
33161;BME280;19522;45.656;11.302;2023-11-21T01:01:07;97726.84;;;7.36;100.00
33161;BME280;19522;45.656;11.302;2023-11-21T01:03:33;97704.69;;;7.26;100.00
33161;BME280;19522;45.656;11.302;2023-11-21T01:06:02;97732.53;;;7.41;99.45
33161;BME280;19522;45.656;11.302;2023-11-21T01:08:27;97712.03;;;7.32;98.76
33161;BME280;19522;45.656;11.302;2023-11-21T01:10:53;97687.94;;;6.39;100.00
33161;BME280;19522;45.656;11.302;2023-11-21T01:13:20;97701.84;;;6.28;100.00
33161;BME280;19522;45.656;11.302;2023-11-21T01:15:46;97731.78;;;6.33;100.00
33161;BME280;19522;45.656;11.302;2023-11-21T01:18:11;97658.38;;;5.99;100.00
33161;BME280;19522;45.656;11.302;2023-11-21T01:20:37;97718.84;;;6.51;100.00
33161;BME280;19522;45.656;11.302;2023-11-21T01:23:02;97708.28;;;6.65;100.00
33161;BME280;19522;45.656;11.302;2023-11-21T01:25:28;97691.84;;;6.75;100.00
33161;BME280;19522;45.656;11.302;2023-11-21T01:27:53;97717.41;;;7.02;100.00
33161;BME280;19522;45.656;11.302;2023-11-21T01:30:19;97716.38;;;7.03;100.00
33161;BME280;19522;45.656;11.302;2023-11-21T01:32:45;97705.50;;;7.11;100.00
33161;BME280;19522;45.656;11.302;2023-11-21T01:35:10;97628.66;;;6.69;100.00
33161;BME280;19522;45.656;11.302;2023-11-21T01:37:39;97672.84;;;7.06;100.00
33161;BME280;19522;45.656;11.302;2023-11-21T01:40:05;97699.91;;;7.13;100.00
33161;BME280;19522;45.656;11.302;2023-11-21T01:42:35;97698.06;;;7.13;100.00
33161;BME280;19522;45.656;11.302;2023-11-21T01:45:01;97634.97;;;6.61;100.00
33161;BME280;19522;45.656;11.302;2023-11-21T01:47:28;97698.03;;;6.98;100.00
33161;BME280;19522;45.656;11.302;2023-11-21T01:49:55;97671.69;;;6.85;100.00
33161;BME280;19522;45.656;11.302;2023-11-21T01:52:20;97675.59;;;6.98;100.00
33161;BME280;19522;45.656;11.302;2023-11-21T01:54:46;97670.69;;;7.01;100.00
33161;BME280;19522;45.656;11.302;2023-11-21T01:57:13;97682.97;;;7.04;100.00
33161;BME280;19522;45.656;11.302;2023-11-21T01:59:41;97653.81;;;6.84;100.00
33161;BME280;19522;45.656;11.302;2023-11-21T02:02:07;97680.03;;;6.76;100.00
33161;BME280;19522;45.656;11.302;2023-11-21T02:04:34;97695.06;;;6.32;100.00
33161;BME280;19522;45.656;11.302;2023-11-21T02:07:00;97683.13;;;6.26;100.00
33161;BME280;19522;45.656;11.302;2023-11-21T02:09:26;97680.94;;;6.30;100.00
33161;BME280;19522;45.656;11.302;2023-11-21T02:11:53;97656.22;;;6.18;100.00
33161;BME280;19522;45.656;11.302;2023-11-21T02:14:24;97670.44;;;6.35;100.00
33161;BME280;19522;45.656;11.302;2023-11-21T02:16:50;97600.91;;;5.99;100.00
33161;BME280;19522;45.656;11.302;2023-11-21T02:19:21;97639.22;;;6.17;100.00
33161;BME280;19522;45.656;11.302;2023-11-21T02:21:56;97635.63;;;5.93;100.00
33161;BME280;19522;45.656;11.302;2023-11-21T02:24:24;97625.59;;;5.87;100.00
33161;BME280;19522;45.656;11.302;2023-11-21T02:26:50;97581.97;;;5.60;100.00
33161;BME280;19522;45.656;11.302;2023-11-21T02:29:17;97644.94;;;5.91;100.00
33161;BME280;19522;45.656;11.302;2023-11-21T02:31:45;97635.97;;;5.99;100.00
33161;BME280;19522;45.656;11.302;2023-11-21T02:34:16;97633.25;;;5.99;100.00
33161;BME280;19522;45.656;11.302;2023-11-21T02:36:46;97613.03;;;6.03;100.00
33161;BME280;19522;45.656;11.302;2023-11-21T02:39:12;97621.78;;;6.28;100.00
33161;BME280;19522;45.656;11.302;2023-11-21T02:41:38;97618.13;;;6.21;100.00
33161;BME280;19522;45.656;11.302;2023-11-21T02:44:05;97589.59;;;5.80;100.00
33161;BME280;19522;45.656;11.302;2023-11-21T02:46:32;97594.84;;;5.97;100.00
33161;BME280;19522;45.656;11.302;2023-11-21T02:49:00;97587.44;;;5.99;100.00
33161;BME280;19522;45.656;11.302;2023-11-21T02:51:25;97574.44;;;5.79;100.00
33161;BME280;19522;45.656;11.302;2023-11-21T02:53:51;97585.84;;;5.58;100.00
33161;BME280;19522;45.656;11.302;2023-11-21T02:56:16;97601.13;;;5.66;100.00
33161;BME280;19522;45.656;11.302;2023-11-21T02:58:43;97609.41;;;5.87;100.00
33161;BME280;19522;45.656;11.302;2023-11-21T03:01:10;97604.22;;;5.86;100.00
33161;BME280;19522;45.656;11.302;2023-11-21T03:03:37;97582.34;;;5.81;100.00
33161;BME280;19522;45.656;11.302;2023-11-21T03:06:06;97577.00;;;5.49;100.00
33161;BME280;19522;45.656;11.302;2023-11-21T03:08:31;97599.72;;;5.78;100.00
33161;BME280;19522;45.656;11.302;2023-11-21T03:10:57;97587.25;;;5.77;100.00
33161;BME280;19522;45.656;11.302;2023-11-21T03:13:23;97579.44;;;5.82;100.00
33161;BME280;19522;45.656;11.302;2023-11-21T03:15:48;97589.47;;;5.97;100.00
33161;BME280;19522;45.656;11.302;2023-11-21T03:18:14;97557.66;;;5.92;100.00
33161;BME280;19522;45.656;11.302;2023-11-21T03:20:39;97597.00;;;5.78;100.00
33161;BME280;19522;45.656;11.302;2023-11-21T03:23:05;97517.81;;;5.41;100.00
33161;BME280;19522;45.656;11.302;2023-11-21T03:25:30;97569.19;;;5.86;100.00
33161;BME280;19522;45.656;11.302;2023-11-21T03:27:56;97563.94;;;5.84;100.00
33161;BME280;19522;45.656;11.302;2023-11-21T03:30:22;97578.38;;;6.00;100.00
33161;BME280;19522;45.656;11.302;2023-11-21T03:32:47;97514.44;;;5.62;100.00
33161;BME280;19522;45.656;11.302;2023-11-21T03:35:13;97571.69;;;6.11;100.00
33161;BME280;19522;45.656;11.302;2023-11-21T03:37:38;97556.84;;;5.91;100.00
33161;BME280;19522;45.656;11.302;2023-11-21T03:40:07;97578.88;;;5.72;100.00
33161;BME280;19522;45.656;11.302;2023-11-21T03:42:34;97515.13;;;5.09;100.00
33161;BME280;19522;45.656;11.302;2023-11-21T03:45:03;97548.34;;;5.25;100.00
33161;BME280;19522;45.656;11.302;2023-11-21T03:47:28;97547.53;;;5.16;100.00
33161;BME280;19522;45.656;11.302;2023-11-21T03:49:54;97578.41;;;5.37;100.00
33161;BME280;19522;45.656;11.302;2023-11-21T03:52:20;97554.41;;;5.27;100.00
33161;BME280;19522;45.656;11.302;2023-11-21T03:54:45;97567.31;;;5.32;100.00
33161;BME280;19522;45.656;11.302;2023-11-21T03:57:11;97574.75;;;5.29;100.00
33161;BME280;19522;45.656;11.302;2023-11-21T03:59:40;97565.06;;;5.12;100.00
33161;BME280;19522;45.656;11.302;2023-11-21T04:02:06;97537.09;;;4.90;100.00
33161;BME280;19522;45.656;11.302;2023-11-21T04:04:33;97556.31;;;5.10;100.00
33161;BME280;19522;45.656;11.302;2023-11-21T04:06:59;97567.38;;;5.15;100.00
33161;BME280;19522;45.656;11.302;2023-11-21T04:09:24;97577.56;;;5.05;100.00
33161;BME280;19522;45.656;11.302;2023-11-21T04:11:51;97575.75;;;5.28;100.00
33161;BME280;19522;45.656;11.302;2023-11-21T04:14:16;97577.63;;;5.28;100.00
33161;BME280;19522;45.656;11.302;2023-11-21T04:16:42;97574.88;;;5.36;100.00
33161;BME280;19522;45.656;11.302;2023-11-21T04:19:08;97579.78;;;5.33;100.00
33161;BME280;19522;45.656;11.302;2023-11-21T04:21:36;97572.97;;;5.45;100.00
33161;BME280;19522;45.656;11.302;2023-11-21T04:24:02;97574.78;;;5.21;100.00
33161;BME280;19522;45.656;11.302;2023-11-21T04:26:28;97576.56;;;5.37;100.00
33161;BME280;19522;45.656;11.302;2023-11-21T04:28:53;97589.69;;;5.64;100.00
33161;BME280;19522;45.656;11.302;2023-11-21T04:31:19;97566.94;;;5.43;100.00
33161;BME280;19522;45.656;11.302;2023-11-21T04:33:44;97561.56;;;5.43;100.00
33161;BME280;19522;45.656;11.302;2023-11-21T04:36:10;97549.44;;;5.07;100.00
33161;BME280;19522;45.656;11.302;2023-11-21T04:38:36;97555.47;;;4.70;100.00
33161;BME280;19522;45.656;11.302;2023-11-21T04:41:01;97522.22;;;4.62;100.00
33161;BME280;19522;45.656;11.302;2023-11-21T04:43:27;97577.00;;;5.18;100.00
33161;BME280;19522;45.656;11.302;2023-11-21T04:45:54;97594.69;;;5.12;100.00
33161;BME280;19522;45.656;11.302;2023-11-21T04:48:20;97588.41;;;4.72;100.00
33161;BME280;19522;45.656;11.302;2023-11-21T04:50:45;97575.91;;;4.87;100.00
33161;BME280;19522;45.656;11.302;2023-11-21T04:53:11;97584.25;;;5.09;100.00
33161;BME280;19522;45.656;11.302;2023-11-21T04:55:42;97569.56;;;5.20;100.00
33161;BME280;19522;45.656;11.302;2023-11-21T04:58:07;97566.75;;;5.13;100.00
33161;BME280;19522;45.656;11.302;2023-11-21T05:00:33;97581.75;;;5.07;100.00
33161;BME280;19522;45.656;11.302;2023-11-21T05:02:59;97595.44;;;5.29;100.00
33161;BME280;19522;45.656;11.302;2023-11-21T05:05:26;97593.41;;;4.91;100.00
33161;BME280;19522;45.656;11.302;2023-11-21T05:07:52;97582.34;;;4.70;100.00
33161;BME280;19522;45.656;11.302;2023-11-21T05:10:19;97527.28;;;4.49;100.00
33161;BME280;19522;45.656;11.302;2023-11-21T05:12:45;97551.47;;;4.65;100.00
33161;BME280;19522;45.656;11.302;2023-11-21T05:15:14;97578.34;;;4.65;100.00
33161;BME280;19522;45.656;11.302;2023-11-21T05:17:40;97583.09;;;4.55;100.00
33161;BME280;19522;45.656;11.302;2023-11-21T05:20:13;97569.66;;;4.39;100.00
33161;BME280;19522;45.656;11.302;2023-11-21T05:22:39;97573.19;;;4.39;100.00
33161;BME280;19522;45.656;11.302;2023-11-21T05:25:06;97581.03;;;4.57;100.00
33161;BME280;19522;45.656;11.302;2023-11-21T05:27:35;97553.66;;;4.53;100.00
33161;BME280;19522;45.656;11.302;2023-11-21T05:30:05;97569.41;;;4.73;100.00
33161;BME280;19522;45.656;11.302;2023-11-21T05:32:31;97542.72;;;4.63;100.00
33161;BME280;19522;45.656;11.302;2023-11-21T05:34:57;97565.31;;;4.94;100.00
33161;BME280;19522;45.656;11.302;2023-11-21T05:37:22;97559.47;;;4.82;100.00
33161;BME280;19522;45.656;11.302;2023-11-21T05:39:49;97559.56;;;4.41;100.00
33161;BME280;19522;45.656;11.302;2023-11-21T05:42:14;97545.69;;;4.12;100.00
33161;BME280;19522;45.656;11.302;2023-11-21T05:44:42;97527.03;;;3.94;100.00
33161;BME280;19522;45.656;11.302;2023-11-21T05:47:08;97575.38;;;4.35;100.00
33161;BME280;19522;45.656;11.302;2023-11-21T05:49:34;97571.81;;;4.43;100.00
33161;BME280;19522;45.656;11.302;2023-11-21T05:52:00;97565.91;;;4.64;100.00
33161;BME280;19522;45.656;11.302;2023-11-21T05:54:26;97540.22;;;4.45;100.00
33161;BME280;19522;45.656;11.302;2023-11-21T05:56:51;97550.16;;;4.45;100.00
33161;BME280;19522;45.656;11.302;2023-11-21T05:59:20;97519.31;;;4.08;100.00
33161;BME280;19522;45.656;11.302;2023-11-21T06:01:46;97557.88;;;4.48;100.00
33161;BME280;19522;45.656;11.302;2023-11-21T06:04:13;97533.03;;;4.38;100.00
33161;BME280;19522;45.656;11.302;2023-11-21T06:06:38;97563.94;;;4.33;100.00
33161;BME280;19522;45.656;11.302;2023-11-21T06:09:04;97550.19;;;4.12;100.00
33161;BME280;19522;45.656;11.302;2023-11-21T06:11:35;97530.38;;;4.21;100.00
33161;BME280;19522;45.656;11.302;2023-11-21T06:14:03;97524.31;;;4.35;100.00
33161;BME280;19522;45.656;11.302;2023-11-21T06:16:29;97539.41;;;4.28;100.00
33161;BME280;19522;45.656;11.302;2023-11-21T06:18:54;97525.34;;;4.10;100.00
33161;BME280;19522;45.656;11.302;2023-11-21T06:21:20;97545.31;;;4.15;100.00
33161;BME280;19522;45.656;11.302;2023-11-21T06:23:45;97542.97;;;4.29;100.00
33161;BME280;19522;45.656;11.302;2023-11-21T06:26:10;97537.41;;;4.22;100.00
33161;BME280;19522;45.656;11.302;2023-11-21T06:28:37;97560.63;;;4.15;100.00
33161;BME280;19522;45.656;11.302;2023-11-21T06:31:02;97559.59;;;3.99;100.00
33161;BME280;19522;45.656;11.302;2023-11-21T06:33:33;97536.09;;;4.18;100.00
33161;BME280;19522;45.656;11.302;2023-11-21T06:35:59;97559.41;;;4.34;100.00
33161;BME280;19522;45.656;11.302;2023-11-21T06:38:25;97559.53;;;4.57;100.00
33161;BME280;19522;45.656;11.302;2023-11-21T06:40:53;97541.09;;;4.46;100.00
33161;BME280;19522;45.656;11.302;2023-11-21T06:43:20;97563.38;;;4.63;100.00
33161;BME280;19522;45.656;11.302;2023-11-21T06:45:47;97560.91;;;4.45;100.00
33161;BME280;19522;45.656;11.302;2023-11-21T06:48:12;97552.66;;;4.46;100.00
33161;BME280;19522;45.656;11.302;2023-11-21T06:50:38;97557.84;;;4.64;100.00
33161;BME280;19522;45.656;11.302;2023-11-21T06:53:03;97556.13;;;4.72;100.00
33161;BME280;19522;45.656;11.302;2023-11-21T06:55:32;97539.41;;;4.45;100.00
33161;BME280;19522;45.656;11.302;2023-11-21T06:57:57;97540.28;;;4.20;100.00
33161;BME280;19522;45.656;11.302;2023-11-21T07:00:23;97559.25;;;4.35;100.00
33161;BME280;19522;45.656;11.302;2023-11-21T07:02:49;97507.81;;;4.39;100.00
33161;BME280;19522;45.656;11.302;2023-11-21T07:05:14;97527.25;;;4.65;100.00
33161;BME280;19522;45.656;11.302;2023-11-21T07:07:40;97534.53;;;4.88;100.00
33161;BME280;19522;45.656;11.302;2023-11-21T07:10:06;97525.50;;;4.81;100.00
33161;BME280;19522;45.656;11.302;2023-11-21T07:12:33;97485.56;;;4.61;100.00
33161;BME280;19522;45.656;11.302;2023-11-21T07:14:59;97540.50;;;5.07;100.00
33161;BME280;19522;45.656;11.302;2023-11-21T07:17:25;97549.22;;;5.17;100.00
33161;BME280;19522;45.656;11.302;2023-11-21T07:19:51;97548.16;;;5.26;100.00
33161;BME280;19522;45.656;11.302;2023-11-21T07:22:16;97510.09;;;5.06;100.00
33161;BME280;19522;45.656;11.302;2023-11-21T07:24:49;97543.03;;;5.40;100.00
33161;BME280;19522;45.656;11.302;2023-11-21T07:27:17;97549.66;;;5.60;100.00
33161;BME280;19522;45.656;11.302;2023-11-21T07:29:43;97510.19;;;5.44;100.00
33161;BME280;19522;45.656;11.302;2023-11-21T07:32:09;97505.75;;;5.52;100.00
33161;BME280;19522;45.656;11.302;2023-11-21T07:34:35;97553.34;;;5.59;100.00
33161;BME280;19522;45.656;11.302;2023-11-21T07:37:01;97510.78;;;5.32;100.00
33161;BME280;19522;45.656;11.302;2023-11-21T07:39:28;97544.59;;;5.34;100.00
33161;BME280;19522;45.656;11.302;2023-11-21T07:41:53;97533.34;;;5.30;100.00
33161;BME280;19522;45.656;11.302;2023-11-21T07:44:19;97520.16;;;5.36;100.00
33161;BME280;19522;45.656;11.302;2023-11-21T07:46:45;97553.59;;;5.73;100.00
33161;BME280;19522;45.656;11.302;2023-11-21T07:49:11;97559.22;;;5.86;100.00
33161;BME280;19522;45.656;11.302;2023-11-21T07:51:40;97549.03;;;5.97;100.00
33161;BME280;19522;45.656;11.302;2023-11-21T07:54:05;97543.66;;;5.97;100.00
33161;BME280;19522;45.656;11.302;2023-11-21T07:56:31;97532.69;;;5.75;100.00
33161;BME280;19522;45.656;11.302;2023-11-21T07:58:56;97513.31;;;5.56;100.00
33161;BME280;19522;45.656;11.302;2023-11-21T08:01:22;97525.81;;;5.49;100.00
33161;BME280;19522;45.656;11.302;2023-11-21T08:03:47;97521.03;;;5.59;100.00
33161;BME280;19522;45.656;11.302;2023-11-21T08:06:16;97528.31;;;5.74;100.00
33161;BME280;19522;45.656;11.302;2023-11-21T08:08:42;97527.97;;;6.00;100.00
33161;BME280;19522;45.656;11.302;2023-11-21T08:11:08;97538.06;;;6.21;100.00
33161;BME280;19522;45.656;11.302;2023-11-21T08:13:35;97534.94;;;6.33;100.00
33161;BME280;19522;45.656;11.302;2023-11-21T08:16:01;97528.63;;;6.41;100.00
33161;BME280;19522;45.656;11.302;2023-11-21T08:18:30;97516.53;;;6.36;100.00
33161;BME280;19522;45.656;11.302;2023-11-21T08:20:56;97527.78;;;6.55;100.00
33161;BME280;19522;45.656;11.302;2023-11-21T08:23:22;97530.59;;;6.62;100.00
33161;BME280;19522;45.656;11.302;2023-11-21T08:25:51;97526.50;;;6.66;100.00
33161;BME280;19522;45.656;11.302;2023-11-21T08:28:21;97524.53;;;6.60;100.00
33161;BME280;19522;45.656;11.302;2023-11-21T08:30:54;97537.97;;;6.68;100.00
33161;BME280;19522;45.656;11.302;2023-11-21T08:33:19;97529.38;;;6.79;100.00
33161;BME280;19522;45.656;11.302;2023-11-21T08:35:45;97452.34;;;6.32;100.00
33161;BME280;19522;45.656;11.302;2023-11-21T08:38:11;97525.66;;;6.80;100.00
33161;BME280;19522;45.656;11.302;2023-11-21T08:40:40;97532.38;;;6.84;100.00
33161;BME280;19522;45.656;11.302;2023-11-21T08:43:05;97548.78;;;7.20;100.00
33161;BME280;19522;45.656;11.302;2023-11-21T08:45:32;97514.78;;;7.25;100.00
33161;BME280;19522;45.656;11.302;2023-11-21T08:48:00;97519.38;;;7.46;100.00
33161;BME280;19522;45.656;11.302;2023-11-21T08:50:25;97510.41;;;7.61;100.00
33161;BME280;19522;45.656;11.302;2023-11-21T08:52:51;97522.03;;;7.83;100.00
33161;BME280;19522;45.656;11.302;2023-11-21T08:55:16;97527.75;;;7.95;100.00
33161;BME280;19522;45.656;11.302;2023-11-21T08:57:43;97509.69;;;7.95;100.00
33161;BME280;19522;45.656;11.302;2023-11-21T09:00:10;97531.34;;;8.24;99.49
33161;BME280;19522;45.656;11.302;2023-11-21T09:02:45;97547.41;;;8.32;98.68
33161;BME280;19522;45.656;11.302;2023-11-21T09:05:11;97566.41;;;8.39;97.21
33161;BME280;19522;45.656;11.302;2023-11-21T09:07:38;97555.34;;;8.34;98.00
33161;BME280;19522;45.656;11.302;2023-11-21T09:10:07;97546.50;;;8.47;97.82
33161;BME280;19522;45.656;11.302;2023-11-21T09:12:35;97531.97;;;8.48;97.01
33161;BME280;19522;45.656;11.302;2023-11-21T09:15:05;97561.69;;;8.69;96.60
33161;BME280;19522;45.656;11.302;2023-11-21T09:17:32;97494.59;;;8.36;96.26
33161;BME280;19522;45.656;11.302;2023-11-21T09:20:01;97562.56;;;8.77;96.82
33161;BME280;19522;45.656;11.302;2023-11-21T09:22:28;97552.06;;;8.67;95.37
33161;BME280;19522;45.656;11.302;2023-11-21T09:24:55;97546.88;;;8.65;95.05
33161;BME280;19522;45.656;11.302;2023-11-21T09:27:24;97569.44;;;8.79;93.96
33161;BME280;19522;45.656;11.302;2023-11-21T09:29:51;97552.38;;;8.79;94.82
33161;BME280;19522;45.656;11.302;2023-11-21T09:32:20;97561.72;;;9.11;94.48
33161;BME280;19522;45.656;11.302;2023-11-21T09:34:48;97556.91;;;9.07;93.31
33161;BME280;19522;45.656;11.302;2023-11-21T09:37:14;97557.53;;;9.09;93.90
33161;BME280;19522;45.656;11.302;2023-11-21T09:39:39;97563.56;;;9.11;93.93
33161;BME280;19522;45.656;11.302;2023-11-21T09:42:13;97573.66;;;9.30;93.73
33161;BME280;19522;45.656;11.302;2023-11-21T09:44:58;97574.78;;;9.43;94.23
33161;BME280;19522;45.656;11.302;2023-11-21T09:47:29;97557.44;;;9.37;94.36
33161;BME280;19522;45.656;11.302;2023-11-21T09:49:56;97543.66;;;9.25;96.25
33161;BME280;19522;45.656;11.302;2023-11-21T09:52:25;97537.16;;;9.19;93.37
33161;BME280;19522;45.656;11.302;2023-11-21T09:54:52;97556.72;;;9.63;84.37
33161;BME280;19522;45.656;11.302;2023-11-21T09:57:23;97561.56;;;9.88;82.33
33161;BME280;19522;45.656;11.302;2023-11-21T09:59:51;97558.25;;;10.13;79.63
33161;BME280;19522;45.656;11.302;2023-11-21T10:02:22;97564.53;;;10.27;79.71
33161;BME280;19522;45.656;11.302;2023-11-21T10:04:51;97559.13;;;10.40;79.27
33161;BME280;19522;45.656;11.302;2023-11-21T10:07:19;97561.03;;;10.47;77.50
33161;BME280;19522;45.656;11.302;2023-11-21T10:09:46;97567.50;;;10.52;79.95
33161;BME280;19522;45.656;11.302;2023-11-21T10:12:15;97531.75;;;10.28;80.94
33161;BME280;19522;45.656;11.302;2023-11-21T10:14:42;97569.97;;;10.54;78.12
33161;BME280;19522;45.656;11.302;2023-11-21T10:17:10;97566.63;;;10.45;76.38
33161;BME280;19522;45.656;11.302;2023-11-21T10:19:39;97536.97;;;10.37;77.07
33161;BME280;19522;45.656;11.302;2023-11-21T10:22:05;97537.41;;;10.34;78.13
33161;BME280;19522;45.656;11.302;2023-11-21T10:24:32;97553.06;;;10.45;76.98
33161;BME280;19522;45.656;11.302;2023-11-21T10:26:58;97544.91;;;10.58;77.32
33161;BME280;19522;45.656;11.302;2023-11-21T10:29:23;97532.38;;;10.57;75.20
33161;BME280;19522;45.656;11.302;2023-11-21T10:31:50;97557.03;;;10.63;77.38
33161;BME280;19522;45.656;11.302;2023-11-21T10:34:20;97557.22;;;10.61;80.27
33161;BME280;19522;45.656;11.302;2023-11-21T10:36:46;97555.56;;;10.53;82.98
33161;BME280;19522;45.656;11.302;2023-11-21T10:39:21;97539.09;;;10.48;80.07
33161;BME280;19522;45.656;11.302;2023-11-21T10:41:49;97523.41;;;10.37;80.76
33161;BME280;19522;45.656;11.302;2023-11-21T10:44:16;97538.22;;;10.54;80.21
33161;BME280;19522;45.656;11.302;2023-11-21T10:46:53;97542.00;;;10.53;80.84
33161;BME280;19522;45.656;11.302;2023-11-21T10:49:22;97551.63;;;10.63;82.37
33161;BME280;19522;45.656;11.302;2023-11-21T10:51:50;97564.75;;;10.66;82.29
33161;BME280;19522;45.656;11.302;2023-11-21T10:54:25;97551.59;;;10.69;82.28
33161;BME280;19522;45.656;11.302;2023-11-21T10:56:57;97551.16;;;10.72;82.57
33161;BME280;19522;45.656;11.302;2023-11-21T10:59:26;97549.09;;;10.68;83.57
33161;BME280;19522;45.656;11.302;2023-11-21T11:01:54;97553.66;;;10.74;83.48
33161;BME280;19522;45.656;11.302;2023-11-21T11:04:22;97547.19;;;10.68;84.69
33161;BME280;19522;45.656;11.302;2023-11-21T11:07:02;97538.63;;;10.31;87.29
33161;BME280;19522;45.656;11.302;2023-11-21T11:09:31;97548.47;;;10.39;88.19
33161;BME280;19522;45.656;11.302;2023-11-21T11:12:01;97553.06;;;10.45;88.89
33161;BME280;19522;45.656;11.302;2023-11-21T11:14:26;97536.97;;;10.23;94.13
33161;BME280;19522;45.656;11.302;2023-11-21T11:16:54;97544.50;;;10.21;97.91
33161;BME280;19522;45.656;11.302;2023-11-21T11:19:20;97565.16;;;10.29;100.00
33161;BME280;19522;45.656;11.302;2023-11-21T11:24:58;97550.16;;;10.40;100.00
33161;BME280;19522;45.656;11.302;2023-11-21T11:38:22;97545.75;;;10.59;100.00
33161;BME280;19522;45.656;11.302;2023-11-21T11:40:53;97529.50;;;10.52;100.00
33161;BME280;19522;45.656;11.302;2023-11-21T11:43:26;97549.09;;;10.61;100.00
33161;BME280;19522;45.656;11.302;2023-11-21T11:45:55;97544.91;;;10.58;100.00
33161;BME280;19522;45.656;11.302;2023-11-21T11:48:21;97518.84;;;10.37;100.00
33161;BME280;19522;45.656;11.302;2023-11-21T11:51:10;97548.50;;;10.46;100.00
33161;BME280;19522;45.656;11.302;2023-11-21T11:53:44;97540.34;;;10.46;100.00
33161;BME280;19522;45.656;11.302;2023-11-21T11:56:29;97553.91;;;10.39;100.00
33161;BME280;19522;45.656;11.302;2023-11-21T11:58:59;97555.97;;;10.30;100.00
33161;BME280;19522;45.656;11.302;2023-11-21T12:01:26;97523.81;;;10.20;100.00
33161;BME280;19522;45.656;11.302;2023-11-21T12:04:25;97547.41;;;10.53;100.00
33161;BME280;19522;45.656;11.302;2023-11-21T12:06:57;97534.88;;;10.59;100.00
33161;BME280;19522;45.656;11.302;2023-11-21T12:09:25;97548.91;;;10.42;100.00
33161;BME280;19522;45.656;11.302;2023-11-21T12:11:52;97539.47;;;10.25;100.00
33161;BME280;19522;45.656;11.302;2023-11-21T12:14:20;97542.81;;;10.27;100.00
33161;BME280;19522;45.656;11.302;2023-11-21T12:16:45;97535.28;;;10.36;100.00
33161;BME280;19522;45.656;11.302;2023-11-21T12:19:11;97533.03;;;10.39;100.00
33161;BME280;19522;45.656;11.302;2023-11-21T12:21:37;97520.91;;;10.22;100.00
33161;BME280;19522;45.656;11.302;2023-11-21T12:24:04;97519.63;;;9.91;100.00
33161;BME280;19522;45.656;11.302;2023-11-21T12:26:34;97523.41;;;9.90;100.00
33161;BME280;19522;45.656;11.302;2023-11-21T12:29:00;97535.72;;;10.12;100.00
33161;BME280;19522;45.656;11.302;2023-11-21T12:31:26;97540.94;;;10.27;100.00
33161;BME280;19522;45.656;11.302;2023-11-21T12:33:54;97522.38;;;10.11;100.00
33161;BME280;19522;45.656;11.302;2023-11-21T12:36:21;97497.09;;;9.90;100.00
33161;BME280;19522;45.656;11.302;2023-11-21T12:38:47;97510.25;;;9.93;100.00
33161;BME280;19522;45.656;11.302;2023-11-21T12:41:12;97480.81;;;9.90;100.00
33161;BME280;19522;45.656;11.302;2023-11-21T12:43:38;97512.16;;;10.13;100.00
33161;BME280;19522;45.656;11.302;2023-11-21T12:46:11;97501.28;;;10.13;100.00
33161;BME280;19522;45.656;11.302;2023-11-21T12:48:41;97536.19;;;10.43;100.00
33161;BME280;19522;45.656;11.302;2023-11-21T12:51:08;97535.72;;;10.39;100.00
33161;BME280;19522;45.656;11.302;2023-11-21T12:53:35;97537.63;;;10.39;100.00
33161;BME280;19522;45.656;11.302;2023-11-21T12:56:22;97511.50;;;10.24;100.00
33161;BME280;19522;45.656;11.302;2023-11-21T12:58:50;97515.25;;;10.30;100.00
33161;BME280;19522;45.656;11.302;2023-11-21T13:01:19;97545.31;;;10.15;100.00
33161;BME280;19522;45.656;11.302;2023-11-21T13:03:48;97539.69;;;10.23;100.00